Portada
METAR-TAF:

METAR-TAF

Aeroports :

Munising, Michigan, Estats Units d'Amèrica

latitud: 46-24N, longitud: 086-39W, altitud: 187 m

Observació

L'informe es va fer fa 16 hores i 5 minuts, a les 14:56 UTC
Vent calma
Temperatura -4°C
Humitat 100%
Pressió 1008 hPa

METAR: KP53 201456Z AUTO 00000KT M04/M04 A2977 RMK AO1 SLP092 P0002 60002 T10391044 58016

Hora: 02:01 (07:01 UTC)


TAF: manca

Observacions i pronòstics meteorològics de més de 4000 aeroports (METAR i TAF).

Les estacions disponibles són els punts grocs i vermells al mapa.

Posi el ratolí al punt desitjat per veure el nom de l'estació.

Feu clic per veure les observacions i els pronòstics meteorològics.

Per canviar el mapa: feu clic els botons verds amb una creu de color negre per apropar; al botó verd amb un guió per allunyar la imatge; o en les fletxes verdes per a mapes adjacents.


METAR-TAF: